Yankton, SD (57078)

02:22 AM CDT on Αύγουστος 04, 2015 (GMT -0500)
IEM | | Change Station
CLOSE
Current Station
Personal Weather Stations
Location: Yankton, SD
Elevation: 1254 ft
Nearby Weather Stations

Elev 1254 ft 42.89 °N, 97.39 °W | Updated 25 minutes ago

Clear
Αίθριος
68 ° F
Feels Like 68 ° F
N
0
Ανεμος Μεταβλητός Ανεμος from Βόρειος
Gusts 0.0 mph

Σήμερα
High -- | Low -- ° F
--% Chance of Precip.
Yesterday
High -- | Low -- ° F
Precip. -- in
6:23 AM 8:46 PM
Αμφίκυρτος, 80% visible
Ατμοσφαιρική Πίεση 29.93 in
Ορατότητα 10.0 Μίλια
Σύννεφα Αίθριος
Σημείο Δρόσου 68 ° F
Υγρασία 100%
Rainfall in
Snow Depth Not available.
Υπεριώδης ακτινοβολία (UV) 0 out of 12
Pollen 6.30 out of 12
Air Quality Not available.
Flu Activity Not available.
METAR KYKN 040715Z AUTO 08006KT 10SM CLR 18/16 A2993 RMK AO1

More Conditions Fewer Conditions

Ατμοσφαιρική Πίεση 29.93 in
Ορατότητα 10.0 Μίλια
Σύννεφα Αίθριος
Σημείο Δρόσου 68 ° F
Υγρασία 100%
Rainfall in
Snow Depth Not available.
Υπεριώδης ακτινοβολία (UV) 0 out of 12
Pollen 6.30 out of 12
Air Quality Not available.
Flu Activity Not available.
METAR KYKN 040715Z AUTO 08006KT 10SM CLR 18/16 A2993 RMK AO1

More Conditions Fewer Conditions

10-Day Weather Forecast

×

Almanac

Αστρονομία

Aug. 04, 2015 Rise Set
Actual Time
Civil Twilight
Nautical Twilight
Astronomical Twilight
Moon
Length Of Visible Light
Διάρκεια ημέρας
Tomorrow will be .
, % of the Moon is Illuminated

Today's Extremes

State Highs State Lows

Community

WunderPhotos

Upload Photos

1,843,877 photos uploaded!

WunderBlogs® & News

Nearby

Air Quality

  Air Quality AQ Index Pollutant
Not available.

Snow Depth

Station Depth Elevation

Earthquake Activity

City Distance Mag. Time & Date
Minimum magnitude displayed is 2.5.

Coastal Water Temperatures

Τοποθεσία Θερμοκρασία

Stations

Nearby Weather Stations

Station Location Temp Δείκτης Ψυχρότητας Σημείο Δρόσου Υγρασία Ανεμος Precip. Elev Ενημερώθηκε Type